Time;durP1;ratioP1;P1;durP2;ratioP2;P2;SDS_P1;SDS_P2;PMS_P1;PMS_P2;Temp;Humidity;BMP_temperature;BMP_pressure;BME280_temperature;BME280_humidity;BME280_pressure;Samples;Min_cycle;Max_cycle;Signal;HPM_P1;HPM_P2
2022/12/07 00:01:39;;;;;;;15.00;7.90;;;;;;;;;;7387548;19;20006;-69
2022/12/07 00:04:07;;;;;;;16.30;8.07;;;;;;;;;;7385681;19;20006;-73
2022/12/07 00:06:35;;;;;;;15.55;7.47;;;;;;;;;;7386983;19;20332;-71
2022/12/07 00:09:01;;;;;;;12.93;7.03;;;;;;;;;;7386100;19;20463;-71
2022/12/07 00:11:26;;;;;;;14.88;7.80;;;;;;;;;;7386080;19;19995;-71
2022/12/07 00:13:54;;;;;;;16.20;7.85;;;;;;;;;;7387297;19;20019;-72
2022/12/07 00:16:21;;;;;;;12.43;6.68;;;;;;;;;;7386758;19;20123;-71
2022/12/07 00:18:47;;;;;;;14.75;7.60;;;;;;;;;;7387146;19;20685;-71
2022/12/07 00:21:21;;;;;;;15.63;7.72;;;;;;;;;;7387312;19;19995;-72
2022/12/07 00:23:48;;;;;;;15.18;7.03;;;;;;;;;;7386654;19;20014;-71
2022/12/07 00:26:31;;;;;;;13.50;7.20;;;;;;;;;;7386622;19;20063;-71
2022/12/07 00:29:03;;;;;;;15.50;6.82;;;;;;;;;;7387365;19;20054;-71
2022/12/07 00:31:38;;;;;;;14.23;6.65;;;;;;;;;;7387130;19;20002;-71
2022/12/07 00:34:03;;;;;;;12.20;6.75;;;;;;;;;;7384694;19;20003;-72
2022/12/07 00:36:29;;;;;;;13.73;6.85;;;;;;;;;;7386277;19;20007;-71
2022/12/07 00:38:58;;;;;;;12.18;6.57;;;;;;;;;;7385065;19;19995;-71
2022/12/07 00:41:25;;;;;;;12.32;6.55;;;;;;;;;;7388560;19;20496;-71
2022/12/07 00:43:51;;;;;;;14.75;6.85;;;;;;;;;;7386493;19;19991;-71
2022/12/07 00:46:18;;;;;;;10.93;5.93;;;;;;;;;;7391120;19;20400;-71
2022/12/07 00:48:43;;;;;;;14.40;6.70;;;;;;;;;;7386734;19;19999;-71
2022/12/07 00:51:10;;;;;;;14.52;7.43;;;;;;;;;;7386855;19;19994;-71
2022/12/07 00:53:36;;;;;;;13.60;6.88;;;;;;;;;;7386086;19;20468;-70
2022/12/07 00:56:14;;;;;;;11.80;6.25;;;;;;;;;;7386635;19;19995;-70
2022/12/07 00:58:39;;;;;;;14.05;6.22;;;;;;;;;;7386512;19;20123;-71
2022/12/07 01:01:06;;;;;;;11.55;6.20;;;;;;;;;;7387093;19;19995;-69
2022/12/07 01:03:32;;;;;;;14.85;6.35;;;;;;;;;;7385742;19;20026;-70
2022/12/07 01:05:58;;;;;;;12.30;6.18;;;;;;;;;;7386320;19;20046;-70
2022/12/07 01:08:24;;;;;;;12.55;6.25;;;;;;;;;;7387860;19;19998;-70
2022/12/07 01:11:06;;;;;;;12.38;6.20;;;;;;;;;;7386459;19;20071;-70
2022/12/07 01:13:33;;;;;;;12.90;6.18;;;;;;;;;;7385764;19;20003;-70
2022/12/07 01:16:00;;;;;;;15.75;6.78;;;;;;;;;;7391354;19;20003;-70
2022/12/07 01:18:27;;;;;;;12.30;6.78;;;;;;;;;;7393971;19;19998;-70
2022/12/07 01:20:59;;;;;;;12.27;5.85;;;;;;;;;;7389579;19;20054;-70
2022/12/07 01:23:24;;;;;;;11.68;6.30;;;;;;;;;;7391577;19;20030;-70
2022/12/07 01:26:00;;;;;;;12.20;6.32;;;;;;;;;;7393305;19;20494;-70
2022/12/07 01:28:26;;;;;;;14.68;6.70;;;;;;;;;;7392996;19;20010;-70
2022/12/07 01:31:01;;;;;;;15.73;6.40;;;;;;;;;;7395540;19;19999;-71
2022/12/07 01:33:33;;;;;;;12.40;6.40;;;;;;;;;;7393466;19;20005;-71
2022/12/07 01:36:06;;;;;;;12.80;6.22;;;;;;;;;;7392767;19;20033;-70
2022/12/07 01:38:32;;;;;;;12.07;6.35;;;;;;;;;;7393166;19;20011;-70
2022/12/07 01:40:58;;;;;;;14.55;6.95;;;;;;;;;;7390569;19;20345;-71
2022/12/07 01:43:26;;;;;;;11.82;6.68;;;;;;;;;;7392405;19;20016;-70
2022/12/07 01:45:51;;;;;;;14.02;6.28;;;;;;;;;;7391413;19;20017;-70
2022/12/07 01:48:21;;;;;;;10.38;5.78;;;;;;;;;;7392612;19;20435;-71
2022/12/07 01:50:50;;;;;;;12.55;6.00;;;;;;;;;;7392500;19;19995;-71
2022/12/07 01:53:16;;;;;;;11.18;5.55;;;;;;;;;;7391866;19;19998;-71
2022/12/07 01:55:45;;;;;;;10.98;5.65;;;;;;;;;;7395719;19;20543;-70
2022/12/07 01:58:11;;;;;;;12.27;6.30;;;;;;;;;;7389984;19;19998;-71
2022/12/07 02:00:37;;;;;;;11.85;5.80;;;;;;;;;;7390150;19;20495;-71
2022/12/07 02:03:22;;;;;;;10.15;5.55;;;;;;;;;;7392025;19;20007;-70
2022/12/07 02:05:49;;;;;;;12.35;5.85;;;;;;;;;;7391840;19;19998;-70
2022/12/07 02:08:14;;;;;;;12.45;5.95;;;;;;;;;;7391686;19;20087;-71
2022/12/07 02:10:40;;;;;;;13.50;6.47;;;;;;;;;;7391670;19;19994;-70
2022/12/07 02:13:16;;;;;;;14.77;6.35;;;;;;;;;;7390571;19;20011;-71
2022/12/07 02:16:13;;;;;;;10.40;5.20;;;;;;;;;;7391091;19;20006;-70
2022/12/07 02:18:52;;;;;;;9.73;5.32;;;;;;;;;;7391015;19;19998;-70
2022/12/07 02:21:32;;;;;;;12.80;6.38;;;;;;;;;;7390977;19;19990;-71
2022/12/07 02:24:16;;;;;;;13.95;6.68;;;;;;;;;;7390392;19;19994;-71
2022/12/07 02:27:19;;;;;;;15.82;7.20;;;;;;;;;;7389008;19;20010;-71
2022/12/07 02:29:54;;;;;;;16.48;6.82;;;;;;;;;;7390569;19;19999;-71
2022/12/07 02:32:22;;;;;;;12.48;6.78;;;;;;;;;;7390348;19;20011;-71
2022/12/07 02:34:47;;;;;;;11.70;6.32;;;;;;;;;;7390173;19;19994;-71
2022/12/07 02:37:23;;;;;;;14.40;6.90;;;;;;;;;;7389083;19;20014;-72
2022/12/07 02:39:55;;;;;;;14.45;6.43;;;;;;;;;;7389721;19;20003;-71
2022/12/07 02:42:30;;;;;;;16.45;7.32;;;;;;;;;;7393276;19;20494;-71
2022/12/07 02:44:56;;;;;;;15.88;6.93;;;;;;;;;;7390123;19;20062;-71
2022/12/07 02:47:24;;;;;;;14.32;6.65;;;;;;;;;;7388772;19;20131;-71
2022/12/07 02:49:51;;;;;;;14.63;7.38;;;;;;;;;;7392505;19;20031;-72
2022/12/07 02:52:16;;;;;;;15.43;7.53;;;;;;;;;;7390196;19;20002;-72
2022/12/07 02:54:41;;;;;;;13.00;6.75;;;;;;;;;;7387561;19;20365;-72
2022/12/07 02:57:31;;;;;;;14.02;7.55;;;;;;;;;;7388597;19;20003;-70
2022/12/07 03:00:11;;;;;;;15.27;7.05;;;;;;;;;;7387599;19;20094;-70
2022/12/07 03:02:42;;;;;;;12.93;6.13;;;;;;;;;;7390001;19;20003;-69
2022/12/07 03:05:27;;;;;;;17.40;6.75;;;;;;;;;;7389887;19;20074;-70
2022/12/07 03:07:58;;;;;;;11.07;6.50;;;;;;;;;;7388470;19;20080;-71
2022/12/07 03:10:42;;;;;;;;;;;;;;;;;;7388221;19;20006;-70
2022/12/07 03:13:26;;;;;;;13.38;6.30;;;;;;;;;;7387745;19;20011;-70
2022/12/07 03:16:01;;;;;;;12.55;5.70;;;;;;;;;;7389238;19;20006;-71
2022/12/07 03:18:32;;;;;;;12.75;6.03;;;;;;;;;;7389368;19;20025;-70
2022/12/07 03:21:04;;;;;;;12.48;6.35;;;;;;;;;;7387778;19;20072;-71
2022/12/07 03:23:34;;;;;;;14.13;5.95;;;;;;;;;;7386038;19;20586;-71
2022/12/07 03:26:01;;;;;;;11.90;5.97;;;;;;;;;;7387295;19;20003;-71
2022/12/07 03:28:32;;;;;;;12.65;6.03;;;;;;;;;;7391535;19;19999;-70
2022/12/07 03:31:27;;;;;;;;;;;;;;;;;;7388418;19;20065;-71
2022/12/07 03:34:09;;;;;;;11.73;4.95;;;;;;;;;;7387328;19;19982;-71
2022/12/07 03:36:47;;;;;;;10.32;5.20;;;;;;;;;;7388349;19;20002;-71
2022/12/07 03:39:24;;;;;;;11.07;5.53;;;;;;;;;;7386657;19;20463;-71
2022/12/07 03:41:50;;;;;;;9.27;4.88;;;;;;;;;;7388910;19;20062;-71
2022/12/07 03:44:16;;;;;;;12.13;6.03;;;;;;;;;;7388451;19;20066;-70
2022/12/07 03:47:02;;;;;;;13.27;5.50;;;;;;;;;;7388697;19;20014;-71
2022/12/07 03:49:43;;;;;;;11.80;5.55;;;;;;;;;;7389049;19;20006;-70
2022/12/07 03:52:26;;;;;;;13.15;5.82;;;;;;;;;;7388610;19;20002;-71
2022/12/07 03:55:08;;;;;;;15.40;5.80;;;;;;;;;;7388604;19;19994;-71
2022/12/07 03:57:34;;;;;;;15.82;6.40;;;;;;;;;;7387859;19;20002;-70
2022/12/07 04:00:03;;;;;;;10.98;5.38;;;;;;;;;;7387927;19;19995;-71
2022/12/07 04:02:28;;;;;;;12.68;6.10;;;;;;;;;;7386946;19;20006;-70
2022/12/07 04:04:55;;;;;;;12.07;5.35;;;;;;;;;;7392060;19;20492;-70
2022/12/07 04:07:21;;;;;;;12.32;5.57;;;;;;;;;;7385964;19;20010;-70
2022/12/07 04:09:46;;;;;;;12.57;5.57;;;;;;;;;;7386490;19;20313;-70
2022/12/07 04:12:11;;;;;;;13.60;5.10;;;;;;;;;;7388425;19;20018;-70
2022/12/07 04:14:37;;;;;;;11.40;5.07;;;;;;;;;;7387615;19;19990;-70
2022/12/07 04:17:03;;;;;;;10.27;5.50;;;;;;;;;;7387022;19;19999;-70
2022/12/07 04:19:33;;;;;;;12.48;5.70;;;;;;;;;;7388031;19;19998;-70
2022/12/07 04:22:00;;;;;;;12.32;5.80;;;;;;;;;;7387966;19;20027;-71
2022/12/07 04:24:27;;;;;;;14.05;6.20;;;;;;;;;;7387002;19;20015;-71
2022/12/07 04:26:52;;;;;;;8.88;3.90;;;;;;;;;;7386944;19;20198;-71
2022/12/07 04:29:18;;;;;;;9.77;4.47;;;;;;;;;;7387662;19;20035;-71
2022/12/07 04:31:44;;;;;;;10.68;4.80;;;;;;;;;;7387329;19;19998;-71
2022/12/07 04:34:10;;;;;;;10.70;4.53;;;;;;;;;;7387139;19;20456;-71
2022/12/07 04:36:36;;;;;;;13.32;5.05;;;;;;;;;;7386212;19;20062;-71
2022/12/07 04:39:03;;;;;;;12.82;4.80;;;;;;;;;;7386861;19;19995;-71
2022/12/07 04:41:28;;;;;;;11.90;5.05;;;;;;;;;;7385425;19;20313;-71
2022/12/07 04:43:55;;;;;;;9.52;4.47;;;;;;;;;;7386715;19;19991;-71
2022/12/07 04:46:20;;;;;;;8.63;4.80;;;;;;;;;;7384613;19;20105;-71
2022/12/07 04:48:46;;;;;;;10.18;4.85;;;;;;;;;;7388469;19;19990;-72
2022/12/07 04:51:20;;;;;;;11.85;5.43;;;;;;;;;;7394257;19;20010;-71
2022/12/07 04:53:45;;;;;;;10.15;5.00;;;;;;;;;;7393756;19;20007;-71
2022/12/07 04:56:10;;;;;;;10.88;5.13;;;;;;;;;;7391821;19;20006;-71
2022/12/07 04:58:35;;;;;;;9.35;4.72;;;;;;;;;;7394022;19;19990;-71
2022/12/07 05:01:01;;;;;;;9.75;4.40;;;;;;;;;;7389751;19;20459;-71
2022/12/07 05:03:26;;;;;;;9.35;4.60;;;;;;;;;;7391124;19;20009;-70
2022/12/07 05:05:52;;;;;;;9.15;4.72;;;;;;;;;;7393398;19;19998;-70
2022/12/07 05:08:17;;;;;;;12.18;4.95;;;;;;;;;;7393517;19;20016;-71
2022/12/07 05:10:42;;;;;;;12.10;5.38;;;;;;;;;;7393475;19;20054;-71
2022/12/07 05:13:07;;;;;;;11.05;4.90;;;;;;;;;;7392719;19;19999;-71
2022/12/07 05:15:33;;;;;;;14.23;5.60;;;;;;;;;;7392983;19;20006;-71
2022/12/07 05:17:58;;;;;;;12.07;4.53;;;;;;;;;;7391102;19;19999;-71
2022/12/07 05:20:24;;;;;;;9.90;4.40;;;;;;;;;;7391591;19;20070;-71
2022/12/07 05:22:49;;;;;;;13.18;5.55;;;;;;;;;;7391645;19;19995;-71
2022/12/07 05:25:14;;;;;;;10.98;5.22;;;;;;;;;;7393116;19;19995;-71
2022/12/07 05:27:40;;;;;;;11.70;5.60;;;;;;;;;;7390936;19;20002;-71
2022/12/07 05:30:06;;;;;;;12.48;5.82;;;;;;;;;;7391619;19;19998;-71
2022/12/07 05:32:31;;;;;;;12.93;5.63;;;;;;;;;;7393741;19;19994;-71
2022/12/07 05:34:57;;;;;;;10.05;4.22;;;;;;;;;;7393046;19;20569;-71
2022/12/07 05:37:22;;;;;;;11.35;5.43;;;;;;;;;;7394709;19;19998;-70
2022/12/07 05:39:47;;;;;;;11.15;5.20;;;;;;;;;;7395164;19;19990;-71
2022/12/07 05:42:13;;;;;;;11.23;6.07;;;;;;;;;;7396159;19;20384;-72
2022/12/07 05:44:39;;;;;;;10.23;4.75;;;;;;;;;;7396239;19;19991;-71
2022/12/07 05:47:05;;;;;;;9.20;4.97;;;;;;;;;;7392516;19;19999;-72
2022/12/07 05:49:31;;;;;;;12.10;5.03;;;;;;;;;;7394081;19;20015;-71
2022/12/07 05:51:56;;;;;;;11.70;5.30;;;;;;;;;;7395174;19;19994;-70
2022/12/07 05:54:21;;;;;;;15.63;5.53;;;;;;;;;;7394626;19;19994;-70
2022/12/07 05:56:47;;;;;;;9.50;5.00;;;;;;;;;;7395507;19;20468;-71
2022/12/07 05:59:25;;;;;;;10.45;5.35;;;;;;;;;;7395571;19;19994;-70
2022/12/07 06:02:03;;;;;;;12.73;5.82;;;;;;;;;;7394266;19;19998;-70
2022/12/07 06:04:31;;;;;;;11.93;5.63;;;;;;;;;;7391723;19;20008;-70
2022/12/07 06:06:57;;;;;;;9.13;5.07;;;;;;;;;;7390629;19;20509;-70
2022/12/07 06:09:23;;;;;;;13.07;5.47;;;;;;;;;;7389951;19;19994;-73
2022/12/07 06:14:32;;;;;;;12.98;5.18;;;;;;;;;;7389610;19;20005;-71
2022/12/07 06:16:58;;;;;;;12.38;5.07;;;;;;;;;;7386599;19;19995;-71
2022/12/07 06:19:24;;;;;;;10.02;5.45;;;;;;;;;;7389024;19;19990;-70
2022/12/07 06:21:49;;;;;;;10.63;5.40;;;;;;;;;;7389578;19;20376;-71
2022/12/07 06:24:16;;;;;;;9.77;5.53;;;;;;;;;;7389424;19;20027;-70
2022/12/07 06:26:42;;;;;;;10.55;5.53;;;;;;;;;;7390598;19;20003;-71
2022/12/07 06:29:07;;;;;;;11.18;5.82;;;;;;;;;;7391416;19;20082;-71
2022/12/07 06:31:33;;;;;;;12.85;6.20;;;;;;;;;;7390997;19;20070;-70
2022/12/07 06:34:04;;;;;;;9.90;4.72;;;;;;;;;;7388302;19;20429;-71
2022/12/07 06:36:30;;;;;;;10.52;4.55;;;;;;;;;;7390062;19;20006;-70
2022/12/07 06:38:55;;;;;;;12.30;5.18;;;;;;;;;;7387543;19;20358;-70
2022/12/07 06:41:21;;;;;;;13.38;6.57;;;;;;;;;;7388591;19;19994;-70
2022/12/07 06:43:46;;;;;;;10.88;5.10;;;;;;;;;;7392354;19;20022;-70
2022/12/07 06:46:12;;;;;;;12.75;5.30;;;;;;;;;;7390572;19;20503;-70
2022/12/07 06:48:38;;;;;;;10.52;5.00;;;;;;;;;;7394045;19;20005;-70
2022/12/07 06:51:03;;;;;;;14.05;5.97;;;;;;;;;;7389725;19;19994;-70
2022/12/07 06:53:29;;;;;;;12.05;5.18;;;;;;;;;;7391535;19;20001;-71
2022/12/07 06:55:54;;;;;;;10.73;5.55;;;;;;;;;;7393432;19;20488;-70
2022/12/07 06:58:19;;;;;;;10.35;5.07;;;;;;;;;;7393169;19;19999;-71
2022/12/07 07:00:45;;;;;;;9.80;4.65;;;;;;;;;;7390909;19;20009;-71
2022/12/07 07:03:11;;;;;;;8.90;4.90;;;;;;;;;;7392294;19;20062;-71
2022/12/07 07:05:36;;;;;;;12.48;5.25;;;;;;;;;;7391365;19;20058;-70
2022/12/07 07:08:02;;;;;;;9.90;5.28;;;;;;;;;;7389199;19;19999;-71
2022/12/07 07:10:28;;;;;;;9.20;4.60;;;;;;;;;;7390222;19;19998;-70
2022/12/07 07:12:53;;;;;;;12.00;5.57;;;;;;;;;;7388774;19;20364;-70
2022/12/07 07:15:18;;;;;;;9.05;4.38;;;;;;;;;;7390380;19;19987;-70
2022/12/07 07:17:44;;;;;;;9.70;5.05;;;;;;;;;;7389495;19;20417;-71
2022/12/07 07:20:10;;;;;;;12.57;6.10;;;;;;;;;;7391123;19;19995;-69
2022/12/07 07:22:35;;;;;;;11.52;5.45;;;;;;;;;;7391380;19;20408;-75
2022/12/07 07:25:01;;;;;;;10.80;4.80;;;;;;;;;;7382557;19;20022;-67
2022/12/07 07:27:26;;;;;;;13.35;5.95;;;;;;;;;;7383412;19;20468;-70
2022/12/07 07:29:51;;;;;;;11.10;5.60;;;;;;;;;;7390110;19;20030;-72
2022/12/07 07:32:16;;;;;;;10.68;5.25;;;;;;;;;;7388658;19;19994;-72
2022/12/07 07:34:42;;;;;;;13.70;6.35;;;;;;;;;;7387525;19;20162;-72
2022/12/07 07:37:07;;;;;;;11.25;5.50;;;;;;;;;;7387848;19;20416;-72
2022/12/07 07:39:32;;;;;;;12.95;6.07;;;;;;;;;;7389733;19;20027;-73
2022/12/07 07:42:01;;;;;;;11.10;5.90;;;;;;;;;;7388939;19;20090;-73
2022/12/07 07:44:26;;;;;;;10.88;5.50;;;;;;;;;;7390859;19;20002;-72
2022/12/07 07:46:51;;;;;;;10.10;5.43;;;;;;;;;;7389515;19;20101;-72
2022/12/07 07:49:16;;;;;;;11.88;5.38;;;;;;;;;;7389248;19;20023;-72
2022/12/07 07:51:42;;;;;;;10.77;5.35;;;;;;;;;;7389531;19;20538;-71
2022/12/07 07:54:07;;;;;;;10.65;5.68;;;;;;;;;;7389775;19;20003;-73
2022/12/07 07:56:32;;;;;;;10.43;4.97;;;;;;;;;;7390516;19;20006;-73
2022/12/07 07:58:58;;;;;;;10.90;5.32;;;;;;;;;;7390768;19;20022;-72
2022/12/07 08:01:23;;;;;;;10.90;4.88;;;;;;;;;;7387539;19;20007;-72
2022/12/07 08:03:49;;;;;;;10.57;5.38;;;;;;;;;;7389172;19;20013;-73
2022/12/07 08:06:14;;;;;;;10.63;5.30;;;;;;;;;;7389754;19;19999;-73
2022/12/07 08:08:39;;;;;;;11.70;5.13;;;;;;;;;;7390228;19;20102;-74
2022/12/07 08:11:08;;;;;;;10.25;5.30;;;;;;;;;;7389782;19;20001;-73
2022/12/07 08:13:34;;;;;;;12.15;5.30;;;;;;;;;;7380937;19;20013;-71
2022/12/07 08:16:04;;;;;;;11.23;5.38;;;;;;;;;;7391107;19;20002;-70
2022/12/07 08:18:29;;;;;;;12.27;4.95;;;;;;;;;;7389208;19;20006;-71
2022/12/07 08:21:01;;;;;;;10.98;4.75;;;;;;;;;;7386348;19;19999;-75
2022/12/07 08:23:27;;;;;;;9.55;5.40;;;;;;;;;;7390721;19;20020;-75
2022/12/07 08:25:52;;;;;;;10.88;4.63;;;;;;;;;;7395439;19;19995;-74
2022/12/07 08:28:17;;;;;;;11.10;5.10;;;;;;;;;;7395798;19;19995;-72
2022/12/07 08:30:43;;;;;;;10.70;5.05;;;;;;;;;;7396639;19;20464;-74
2022/12/07 08:33:10;;;;;;;11.38;5.50;;;;;;;;;;7396707;19;20022;-72
2022/12/07 08:35:35;;;;;;;11.05;5.80;;;;;;;;;;7397449;19;19991;-71
2022/12/07 08:38:02;;;;;;;12.73;6.47;;;;;;;;;;7392305;19;20011;-73
2022/12/07 08:40:27;;;;;;;11.88;6.07;;;;;;;;;;7394299;19;20002;-72
2022/12/07 08:42:53;;;;;;;9.75;4.68;;;;;;;;;;7383706;19;20023;-75
2022/12/07 08:45:19;;;;;;;12.10;5.22;;;;;;;;;;7396480;19;20099;-72
2022/12/07 08:47:53;;;;;;;10.35;4.72;;;;;;;;;;7395066;19;20005;-72
2022/12/07 08:50:19;;;;;;;11.25;4.90;;;;;;;;;;7395533;19;20002;-71
2022/12/07 08:52:50;;;;;;;13.35;5.30;;;;;;;;;;7397099;19;19998;-73
2022/12/07 08:55:15;;;;;;;11.50;4.50;;;;;;;;;;7393972;19;20191;-72
2022/12/07 08:57:41;;;;;;;10.55;4.97;;;;;;;;;;7395312;19;20023;-71
2022/12/07 09:00:07;;;;;;;9.23;4.05;;;;;;;;;;7392462;19;20002;-74
2022/12/07 09:02:32;;;;;;;8.07;4.22;;;;;;;;;;7395186;19;20061;-72
2022/12/07 09:04:58;;;;;;;7.93;3.92;;;;;;;;;;7394637;19;20359;-73
2022/12/07 09:07:24;;;;;;;7.32;3.88;;;;;;;;;;7395111;19;20017;-73
2022/12/07 09:09:49;;;;;;;8.93;4.22;;;;;;;;;;7392816;19;20451;-72
2022/12/07 09:12:15;;;;;;;9.05;4.10;;;;;;;;;;7394506;19;19998;-74
2022/12/07 09:14:40;;;;;;;9.55;4.38;;;;;;;;;;7393949;19;19995;-72
2022/12/07 09:17:10;;;;;;;6.85;4.00;;;;;;;;;;7393135;19;20002;-73
2022/12/07 09:19:36;;;;;;;8.23;3.83;;;;;;;;;;7394654;19;19997;-71
2022/12/07 09:22:04;;;;;;;8.82;4.00;;;;;;;;;;7393642;19;19998;-72
2022/12/07 09:24:29;;;;;;;7.93;3.58;;;;;;;;;;7395238;19;20351;-73
2022/12/07 09:26:55;;;;;;;7.55;4.03;;;;;;;;;;7386172;19;20010;-72
2022/12/07 09:29:20;;;;;;;8.63;4.00;;;;;;;;;;7395887;19;20534;-73
2022/12/07 09:31:45;;;;;;;7.25;3.70;;;;;;;;;;7391637;19;20005;-71
2022/12/07 09:34:11;;;;;;;6.88;3.90;;;;;;;;;;7395084;19;20017;-72
2022/12/07 09:36:36;;;;;;;6.78;3.65;;;;;;;;;;7391237;19;20026;-73
2022/12/07 09:39:04;;;;;;;10.10;5.13;;;;;;;;;;7394415;19;20003;-72
2022/12/07 09:41:31;;;;;;;7.55;4.40;;;;;;;;;;7395146;19;20519;-73
2022/12/07 09:44:05;;;;;;;8.52;4.50;;;;;;;;;;7392031;19;19999;-72
2022/12/07 09:46:36;;;;;;;9.60;3.28;;;;;;;;;;7392232;19;20078;-72
2022/12/07 09:49:01;;;;;;;;;;;;;;;;;;7394856;19;20375;-71
2022/12/07 09:51:27;;;;;;;8.27;3.50;;;;;;;;;;7394408;19;19915;-72
2022/12/07 09:53:55;;;;;;;6.25;3.35;;;;;;;;;;7391616;19;20462;-74
2022/12/07 09:56:22;;;;;;;7.57;3.03;;;;;;;;;;7391847;19;20007;-74
2022/12/07 09:58:48;;;;;;;8.18;3.20;;;;;;;;;;7393384;19;20002;-75
2022/12/07 10:01:17;;;;;;;5.32;3.05;;;;;;;;;;7391892;19;20006;-74
2022/12/07 10:03:50;;;;;;;6.15;2.58;;;;;;;;;;7395702;19;19999;-73
2022/12/07 10:06:16;;;;;;;6.55;3.28;;;;;;;;;;7391197;19;20003;-73
2022/12/07 10:08:43;;;;;;;6.13;2.72;;;;;;;;;;7394327;19;20005;-74
2022/12/07 10:11:10;;;;;;;5.68;3.17;;;;;;;;;;7394841;19;19999;-73
2022/12/07 10:13:45;;;;;;;6.57;2.58;;;;;;;;;;7394753;19;19995;-72
2022/12/07 10:16:32;;;;;;;6.57;3.05;;;;;;;;;;7391228;19;20103;-72
2022/12/07 10:19:22;;;;;;;6.93;3.10;;;;;;;;;;7393441;19;20006;-72
2022/12/07 10:22:01;;;;;;;7.38;2.83;;;;;;;;;;7393695;19;20464;-72
2022/12/07 10:24:26;;;;;;;5.82;2.67;;;;;;;;;;7391438;19;20022;-72
2022/12/07 10:26:52;;;;;;;5.97;2.60;;;;;;;;;;7391622;19;20031;-71
2022/12/07 10:29:48;;;;;;;7.25;2.90;;;;;;;;;;7393993;19;20003;-69
2022/12/07 10:32:13;;;;;;;6.68;2.85;;;;;;;;;;7390611;19;20191;-76
2022/12/07 10:34:39;;;;;;;8.05;3.10;;;;;;;;;;7391853;19;20443;-75
2022/12/07 10:37:07;;;;;;;6.35;2.67;;;;;;;;;;7391627;19;20460;-74
2022/12/07 10:39:45;;;;;;;7.13;2.65;;;;;;;;;;7392421;19;19994;-73
2022/12/07 10:42:18;;;;;;;5.30;2.25;;;;;;;;;;7394068;19;19994;-72
2022/12/07 10:44:44;;;;;;;5.00;2.30;;;;;;;;;;7391900;19;20005;-71
2022/12/07 10:47:48;;;;;;;5.47;2.30;;;;;;;;;;7392061;19;19999;-71
2022/12/07 10:50:56;;;;;;;6.07;2.13;;;;;;;;;;7392572;19;19994;-71
2022/12/07 10:53:40;;;;;;;4.07;2.13;;;;;;;;;;7392277;19;20479;-73
2022/12/07 10:56:27;;;;;;;6.50;2.35;;;;;;;;;;7390775;19;20019;-73
2022/12/07 10:59:10;;;;;;;6.72;2.78;;;;;;;;;;7392437;19;20003;-74
2022/12/07 11:02:11;;;;;;;9.20;3.05;;;;;;;;;;7392153;19;19999;-73
2022/12/07 11:05:06;;;;;;;10.87;3.93;;;;;;;;;;7388066;19;20007;-73
2022/12/07 11:07:52;;;;;;;5.57;2.60;;;;;;;;;;7392638;19;20032;-74
2022/12/07 11:10:39;;;;;;;2.88;1.55;;;;;;;;;;7390313;19;19999;-74
2022/12/07 11:13:36;;;;;;;7.10;2.00;;;;;;;;;;7391642;19;20023;-73
2022/12/07 11:16:10;;;;;;;4.10;2.10;;;;;;;;;;7391573;19;19998;-73
2022/12/07 11:18:59;;;;;;;6.15;2.17;;;;;;;;;;7391683;19;20471;-74
2022/12/07 11:21:32;;;;;;;5.82;1.98;;;;;;;;;;7388321;19;19999;-74
2022/12/07 11:24:08;;;;;;;10.48;2.67;;;;;;;;;;7391148;19;19999;-74
2022/12/07 11:26:42;;;;;;;4.65;2.10;;;;;;;;;;7390027;19;20088;-76
2022/12/07 11:29:18;;;;;;;5.85;2.20;;;;;;;;;;7388385;19;20014;-75
2022/12/07 11:32:01;;;;;;;8.90;1.90;;;;;;;;;;7392261;19;20001;-74
2022/12/07 11:34:44;;;;;;;5.50;1.95;;;;;;;;;;7390022;19;19999;-75
2022/12/07 11:37:16;;;;;;;3.45;1.77;;;;;;;;;;7391865;19;20027;-74
2022/12/07 11:39:50;;;;;;;6.00;1.60;;;;;;;;;;7390407;19;19991;-75
2022/12/07 11:42:20;;;;;;;4.43;1.40;;;;;;;;;;7390508;19;19999;-74
2022/12/07 11:45:07;;;;;;;4.53;1.50;;;;;;;;;;7390408;19;20018;-74
2022/12/07 11:47:43;;;;;;;3.38;1.42;;;;;;;;;;7389313;19;20002;-74
2022/12/07 11:50:21;;;;;;;2.97;1.55;;;;;;;;;;7387921;19;20012;-74
2022/12/07 11:53:07;;;;;;;3.63;1.30;;;;;;;;;;7390555;19;19999;-73
2022/12/07 11:55:51;;;;;;;4.80;1.40;;;;;;;;;;7391977;19;20412;-73
2022/12/07 11:58:43;;;;;;;3.47;1.60;;;;;;;;;;7387943;19;20006;-73
2022/12/07 12:01:17;;;;;;;3.20;1.42;;;;;;;;;;7390262;19;19994;-73
2022/12/07 12:03:56;;;;;;;4.32;1.60;;;;;;;;;;7391736;19;20277;-72
2022/12/07 12:06:22;;;;;;;1.55;1.25;;;;;;;;;;7390140;19;20015;-74
2022/12/07 12:09:02;;;;;;;1.95;1.15;;;;;;;;;;7390230;19;20548;-74
2022/12/07 12:12:01;;;;;;;3.30;1.33;;;;;;;;;;7391948;19;20418;-74
2022/12/07 12:14:43;;;;;;;3.30;1.50;;;;;;;;;;7388403;19;20023;-73
2022/12/07 12:17:47;;;;;;;4.05;1.30;;;;;;;;;;7387963;19;20436;-73
2022/12/07 12:20:21;;;;;;;2.08;1.23;;;;;;;;;;7385697;19;19998;-73
2022/12/07 12:22:57;;;;;;;3.28;1.50;;;;;;;;;;7389072;19;20006;-73
2022/12/07 12:25:31;;;;;;;3.47;1.30;;;;;;;;;;7387578;19;20005;-74
2022/12/07 12:27:59;;;;;;;4.00;1.38;;;;;;;;;;7386401;19;20041;-72
2022/12/07 12:30:35;;;;;;;3.22;1.30;;;;;;;;;;7388681;19;20028;-74
2022/12/07 12:33:05;;;;;;;4.28;1.23;;;;;;;;;;7389081;19;19995;-73
2022/12/07 12:35:36;;;;;;;5.07;1.70;;;;;;;;;;7390945;19;20103;-73
2022/12/07 12:38:26;;;;;;;;;;;;;;;;;;7386744;19;19998;-72
2022/12/07 12:40:52;;;;;;;6.03;1.83;;;;;;;;;;7387644;19;20337;-73
2022/12/07 12:43:43;;;;;;;3.10;1.40;;;;;;;;;;7389324;19;20064;-73
2022/12/07 12:46:51;;;;;;;2.90;1.33;;;;;;;;;;7385879;19;20019;-73
2022/12/07 12:49:19;;;;;;;3.47;1.60;;;;;;;;;;7385024;19;20510;-74
2022/12/07 12:51:50;;;;;;;3.35;1.50;;;;;;;;;;7386319;19;20388;-74
2022/12/07 12:55:00;;;;;;;4.50;1.52;;;;;;;;;;7388820;19;20054;-73
2022/12/07 12:57:29;;;;;;;7.32;1.45;;;;;;;;;;7377682;19;19999;-73
2022/12/07 12:59:54;;;;;;;6.60;1.60;;;;;;;;;;7376423;19;20000;-73
2022/12/07 13:02:30;;;;;;;5.63;1.50;;;;;;;;;;7386564;19;20078;-74
2022/12/07 13:05:19;;;;;;;6.30;1.60;;;;;;;;;;7389144;19;20003;-74
2022/12/07 13:07:45;;;;;;;3.38;1.75;;;;;;;;;;7384703;19;20005;-73
2022/12/07 13:10:32;;;;;;;5.85;1.92;;;;;;;;;;7390184;19;19998;-73
2022/12/07 13:13:09;;;;;;;3.40;1.17;;;;;;;;;;7395197;19;20523;-73
2022/12/07 13:15:53;;;;;;;8.18;1.73;;;;;;;;;;7396373;19;20519;-74
2022/12/07 13:18:28;;;;;;;3.90;1.65;;;;;;;;;;7395452;19;20002;-73
2022/12/07 13:21:08;;;;;;;2.75;1.05;;;;;;;;;;7391732;19;20030;-73
2022/12/07 13:23:45;;;;;;;5.03;1.60;;;;;;;;;;7396639;19;20058;-72
2022/12/07 13:26:29;;;;;;;6.43;1.85;;;;;;;;;;7394855;19;20294;-73
2022/12/07 13:29:09;;;;;;;3.45;1.58;;;;;;;;;;7390217;19;20013;-73
2022/12/07 13:31:45;;;;;;;3.10;1.15;;;;;;;;;;7394650;19;20006;-72
2022/12/07 13:34:31;;;;;;;4.03;1.25;;;;;;;;;;7395618;19;20036;-72
2022/12/07 13:36:59;;;;;;;3.70;1.77;;;;;;;;;;7393117;19;20024;-73
2022/12/07 13:39:26;;;;;;;3.92;1.42;;;;;;;;;;7396520;19;19998;-73
2022/12/07 13:41:57;;;;;;;6.60;1.70;;;;;;;;;;7393589;19;20644;-73
2022/12/07 13:44:24;;;;;;;1.98;1.35;;;;;;;;;;7395125;19;19998;-73
2022/12/07 13:47:01;;;;;;;2.75;1.30;;;;;;;;;;7392202;19;20002;-72
2022/12/07 13:49:31;;;;;;;4.63;1.50;;;;;;;;;;7395265;19;20003;-74
2022/12/07 13:52:20;;;;;;;6.40;1.60;;;;;;;;;;7392760;19;20008;-73
2022/12/07 13:55:00;;;;;;;2.05;1.23;;;;;;;;;;7394620;19;20026;-74
2022/12/07 13:57:27;;;;;;;2.17;1.20;;;;;;;;;;7393597;19;20823;-74
2022/12/07 13:59:53;;;;;;;2.00;1.30;;;;;;;;;;7392735;19;20122;-73
2022/12/07 14:02:26;;;;;;;2.88;1.30;;;;;;;;;;7394965;19;19999;-75
2022/12/07 14:05:05;;;;;;;2.35;1.35;;;;;;;;;;7394349;19;20006;-74
2022/12/07 14:07:33;;;;;;;4.93;1.65;;;;;;;;;;7391705;19;19991;-72
2022/12/07 14:10:05;;;;;;;2.92;1.40;;;;;;;;;;7390865;19;20019;-72
2022/12/07 14:12:32;;;;;;;6.70;1.67;;;;;;;;;;7389661;19;20368;-74
2022/12/07 14:15:00;;;;;;;4.30;1.52;;;;;;;;;;7390191;19;20010;-72
2022/12/07 14:17:29;;;;;;;1.85;1.30;;;;;;;;;;7387301;19;20115;-72
2022/12/07 14:19:59;;;;;;;4.90;1.90;;;;;;;;;;7388971;19;20006;-72
2022/12/07 14:22:29;;;;;;;5.47;1.92;;;;;;;;;;7383729;19;20006;-72
2022/12/07 14:25:13;;;;;;;3.20;1.48;;;;;;;;;;7393719;19;20360;-73
2022/12/07 14:27:46;;;;;;;5.38;1.70;;;;;;;;;;7390835;19;20007;-71
2022/12/07 14:30:17;;;;;;;2.40;1.33;;;;;;;;;;7392903;19;20006;-72
2022/12/07 14:32:48;;;;;;;3.15;1.90;;;;;;;;;;7392639;19;20074;-71
2022/12/07 14:35:16;;;;;;;5.57;1.83;;;;;;;;;;7394344;19;19999;-72
2022/12/07 14:37:43;;;;;;;5.50;1.42;;;;;;;;;;7390824;19;20003;-72
2022/12/07 14:40:13;;;;;;;4.10;1.50;;;;;;;;;;7390119;19;20026;-73
2022/12/07 14:42:39;;;;;;;3.35;1.60;;;;;;;;;;7389839;19;20013;-75
2022/12/07 14:45:15;;;;;;;5.13;1.42;;;;;;;;;;7393493;19;19999;-72
2022/12/07 14:47:40;;;;;;;6.78;1.40;;;;;;;;;;7389155;19;20005;-73
2022/12/07 14:50:07;;;;;;;6.03;1.88;;;;;;;;;;7388921;19;20002;-73
2022/12/07 14:52:33;;;;;;;2.58;1.55;;;;;;;;;;7387735;19;20010;-74
2022/12/07 14:54:58;;;;;;;2.90;1.60;;;;;;;;;;7391424;19;20062;-72
2022/12/07 14:57:23;;;;;;;3.40;1.50;;;;;;;;;;7387288;19;20511;-73
2022/12/07 14:59:49;;;;;;;5.05;1.63;;;;;;;;;;7386843;19;20021;-73
2022/12/07 15:02:16;;;;;;;6.00;1.60;;;;;;;;;;7389621;19;20023;-73
2022/12/07 15:04:41;;;;;;;3.10;1.40;;;;;;;;;;7390291;19;19995;-73